Time;durP1;ratioP1;P1;durP2;ratioP2;P2;SDS_P1;SDS_P2;PMS_P1;PMS_P2;Temp;Humidity;BMP_temperature;BMP_pressure;BME280_temperature;BME280_humidity;BME280_pressure;Samples;Min_cycle;Max_cycle;Signal;HPM_P1;HPM_P2
2021/12/01 12:20:52;;;;;;;;;0.25;0.25;;;;;8.74;88.05;97263.56;4975756;28;8732;-53
2021/12/01 12:23:19;;;;;;;;;0.50;0.50;;;;;8.74;88.16;97275.00;4976267;28;9290;-53
2021/12/01 12:25:52;;;;;;;;;0.75;0.00;;;;;8.75;88.18;97267.88;4979041;28;8962;-52
2021/12/01 12:28:31;;;;;;;;;1.00;1.00;;;;;8.76;87.99;97272.19;4976200;28;8902;-53
2021/12/01 12:30:59;;;;;;;;;1.00;0.00;;;;;8.77;88.41;97271.16;4977222;28;8880;-53
2021/12/01 12:33:27;;;;;;;;;0.00;0.00;;;;;8.78;87.89;97275.47;4978034;28;8860;-53
2021/12/01 12:35:55;;;;;;;;;1.00;0.00;;;;;8.78;88.05;97272.81;4978424;28;8860;-53
2021/12/01 12:38:23;;;;;;;;;0.00;0.00;;;;;8.78;88.10;97268.34;4981030;28;9003;-53
2021/12/01 12:40:51;;;;;;;;;0.00;0.00;;;;;8.79;87.88;97264.69;4981014;28;8871;-54
2021/12/01 12:43:19;;;;;;;;;0.50;0.00;;;;;8.78;88.35;97281.63;4980469;28;8992;-54
2021/12/01 12:45:48;;;;;;;;;0.00;0.00;;;;;8.78;88.32;97289.56;4980597;28;9316;-54
2021/12/01 12:48:15;;;;;;;;;0.00;0.00;;;;;8.74;87.76;97295.41;4981145;28;9024;-54
2021/12/01 12:50:43;;;;;;;;;0.00;0.00;;;;;8.65;88.15;97285.84;4980191;28;8880;-52
2021/12/01 12:53:11;;;;;;;;;0.00;0.00;;;;;8.54;88.18;97295.03;4982212;28;8875;-53
2021/12/01 12:55:40;;;;;;;;;0.00;0.00;;;;;8.45;88.53;97296.06;4982417;28;8868;-52
2021/12/01 12:58:08;;;;;;;;;0.00;0.00;;;;;8.37;88.32;97298.75;4979408;28;8853;-52
2021/12/01 13:00:36;;;;;;;;;0.25;0.00;;;;;8.28;88.34;97299.78;4979746;28;8837;-52
2021/12/01 13:03:04;;;;;;;;;0.00;0.00;;;;;8.20;88.32;97289.22;4982373;28;8892;-51
2021/12/01 13:05:32;;;;;;;;;0.00;0.00;;;;;8.15;88.64;97294.16;4981964;28;8873;-53
2021/12/01 13:08:00;;;;;;;;;0.00;0.00;;;;;8.11;88.90;97310.59;4978783;28;8853;-52
2021/12/01 13:10:28;;;;;;;;;0.50;0.25;;;;;8.07;88.92;97304.81;4980514;28;9689;-52
2021/12/01 13:12:56;;;;;;;;;0.00;0.00;;;;;8.07;89.01;97312.75;4982293;28;8868;-52
2021/12/01 13:15:23;;;;;;;;;0.00;0.00;;;;;8.07;88.83;97314.59;4981178;28;9030;-52
2021/12/01 13:17:51;;;;;;;;;1.00;1.00;;;;;8.08;88.97;97309.13;4981123;28;8914;-52
2021/12/01 13:20:19;;;;;;;;;0.00;0.00;;;;;8.13;88.63;97311.28;4999624;28;9005;-52
2021/12/01 13:22:47;;;;;;;;;0.50;0.00;;;;;8.17;88.79;97308.09;5000455;28;8870;-52
2021/12/01 13:25:15;;;;;;;;;0.00;0.00;;;;;8.23;88.48;97303.97;5001030;28;8973;-52
2021/12/01 13:27:43;;;;;;;;;0.00;0.00;;;;;8.29;88.11;97306.75;5001579;28;8876;-52
2021/12/01 13:30:11;;;;;;;;;0.00;0.00;;;;;8.34;88.11;97311.53;5002297;28;9241;-51
2021/12/01 13:32:38;;;;;;;;;0.50;0.25;;;;;8.38;88.02;97313.66;5000103;28;9206;-51
2021/12/01 13:35:06;;;;;;;;;1.00;1.00;;;;;8.37;87.59;97319.97;5000610;28;9020;-51
2021/12/01 13:37:34;;;;;;;;;1.00;1.00;;;;;8.37;87.43;97314.66;4997755;28;8870;-52
2021/12/01 13:40:02;;;;;;;;;2.50;0.75;;;;;8.34;87.37;97322.97;4998809;28;8920;-51
2021/12/01 13:42:30;;;;;;;;;3.00;1.50;;;;;8.32;87.62;97324.13;4999371;28;8862;-52
2021/12/01 13:44:58;;;;;;;;;3.00;2.50;;;;;8.29;87.56;97327.94;4998515;28;8858;-52
2021/12/01 13:47:25;;;;;;;;;1.50;1.50;;;;;8.25;87.61;97331.97;4999234;28;8870;-51
2021/12/01 13:49:53;;;;;;;;;1.00;1.00;;;;;8.23;87.82;97333.97;5001614;28;8874;-51
2021/12/01 13:52:21;;;;;;;;;1.00;1.00;;;;;8.23;87.98;97336.59;5001656;28;8858;-52
2021/12/01 13:54:49;;;;;;;;;4.00;3.75;;;;;8.25;87.54;97331.97;4998977;28;8858;-51
2021/12/01 13:57:17;;;;;;;;;3.00;1.00;;;;;8.26;87.70;97333.59;5001653;28;8861;-52
2021/12/01 13:59:45;;;;;;;;;1.00;1.00;;;;;8.25;87.45;97342.56;5002499;28;9020;-52
2021/12/01 14:02:13;;;;;;;;;0.00;0.00;;;;;8.27;87.50;97348.50;5000389;28;8877;-52
2021/12/01 14:04:41;;;;;;;;;0.75;0.75;;;;;8.27;87.18;97343.22;4998432;28;8869;-52
2021/12/01 14:07:08;;;;;;;;;1.00;1.00;;;;;8.28;87.01;97344.03;5001357;28;8858;-53
2021/12/01 14:09:37;;;;;;;;;0.00;0.00;;;;;8.29;87.35;97353.66;4997612;28;8850;-52
2021/12/01 14:12:04;;;;;;;;;1.00;1.00;;;;;8.29;86.89;97343.84;4998000;28;9575;-52
2021/12/01 14:14:32;;;;;;;;;0.00;0.00;;;;;8.30;86.88;97345.50;5001510;28;8862;-52
2021/12/01 14:17:00;;;;;;;;;1.00;1.00;;;;;8.32;86.88;97340.88;5000176;28;8885;-52
2021/12/01 14:19:28;;;;;;;;;1.00;1.00;;;;;8.32;86.82;97340.88;5000321;28;8904;-52
2021/12/01 14:21:55;;;;;;;;;0.25;0.25;;;;;8.32;86.66;97335.56;5000724;28;8908;-52
2021/12/01 14:24:25;;;;;;;;;1.00;1.00;;;;;8.34;86.51;97335.38;5000077;28;8876;-53
2021/12/01 14:26:53;;;;;;;;;0.00;0.00;;;;;8.34;86.85;97341.53;5000785;28;8870;-52
2021/12/01 14:29:21;;;;;;;;;0.75;0.75;;;;;8.34;87.02;97336.22;4997697;28;8870;-53
2021/12/01 14:31:49;;;;;;;;;2.00;2.00;;;;;8.35;86.38;97324.63;4999811;28;8862;-52
2021/12/01 14:34:17;;;;;;;;;1.00;1.00;;;;;8.38;86.33;97340.16;5001186;28;8858;-52
2021/12/01 14:36:44;;;;;;;;;3.00;3.00;;;;;8.38;86.55;97339.34;4999427;28;8892;-52
2021/12/01 14:39:12;;;;;;;;;0.50;0.50;;;;;8.39;86.47;97333.06;4999712;28;8854;-52
2021/12/01 14:41:40;;;;;;;;;1.00;0.75;;;;;8.39;86.27;97348.97;4999096;28;8877;-52
2021/12/01 14:44:07;;;;;;;;;1.00;1.00;;;;;8.37;86.53;97335.88;4994302;28;8880;-52
2021/12/01 14:46:36;;;;;;;;;2.50;2.50;;;;;8.37;86.55;97341.16;4995883;28;8846;-52
2021/12/01 14:49:03;;;;;;;;;2.00;1.00;;;;;8.36;86.10;97333.41;4997701;28;8885;-52
2021/12/01 14:51:31;;;;;;;;;3.50;3.00;;;;;8.35;86.04;97329.91;4997209;28;8873;-52
2021/12/01 14:53:59;;;;;;;;;2.25;2.00;;;;;8.34;86.43;97327.44;5000057;28;10116;-52
2021/12/01 14:56:27;;;;;;;;;1.50;1.50;;;;;8.34;86.01;97336.22;4999102;28;8838;-52
2021/12/01 14:58:54;;;;;;;;;0.75;0.75;;;;;8.34;85.77;97340.69;5001712;28;8870;-52
2021/12/01 15:01:22;;;;;;;;;1.00;1.00;;;;;8.33;86.00;97333.72;4999096;28;9666;-53
2021/12/01 15:03:50;;;;;;;;;0.75;0.75;;;;;8.33;85.73;97344.34;4999783;28;8862;-52
2021/12/01 15:06:18;;;;;;;;;0.25;0.25;;;;;8.31;86.25;97341.88;5002671;28;9301;-52
2021/12/01 15:08:46;;;;;;;;;0.00;0.00;;;;;8.30;85.72;97345.50;4996998;28;9144;-53
2021/12/01 15:11:16;;;;;;;;;0.75;0.75;;;;;8.31;85.69;97341.03;5000511;28;8864;-52
2021/12/01 15:13:43;;;;;;;;;0.00;0.00;;;;;8.30;85.67;97350.81;5001130;28;8854;-53
2021/12/01 15:16:11;;;;;;;;;0.50;0.00;;;;;8.31;85.25;97344.53;4999878;28;8935;-53
2021/12/01 15:18:39;;;;;;;;;3.00;1.00;;;;;8.31;85.53;97339.22;5003063;28;8874;-53
2021/12/01 15:21:07;;;;;;;;;0.00;0.00;;;;;8.32;85.41;97348.84;5002327;28;8850;-53
2021/12/01 15:23:35;;;;;;;;;0.00;0.00;;;;;8.31;85.35;97349.84;5002443;28;8951;-53
2021/12/01 15:26:03;;;;;;;;;0.50;0.00;;;;;8.30;85.57;97344.69;5000092;28;9508;-53
2021/12/01 15:28:30;;;;;;;;;0.50;0.00;;;;;8.30;85.37;97347.34;5001561;28;8863;-53
2021/12/01 15:30:58;;;;;;;;;0.25;0.00;;;;;8.28;85.22;97339.56;4999559;28;9528;-53
2021/12/01 15:33:26;;;;;;;;;0.00;0.00;;;;;8.28;85.31;97350.16;5002242;28;9005;-53
2021/12/01 15:35:54;;;;;;;;;2.00;2.00;;;;;8.25;85.36;97342.56;5000394;28;8858;-53
2021/12/01 15:38:22;;;;;;;;;1.00;1.00;;;;;8.24;85.69;97342.72;4999249;28;8870;-53
2021/12/01 15:40:49;;;;;;;;;1.00;1.00;;;;;8.24;85.34;97348.88;4999406;28;8884;-54
2021/12/01 15:43:17;;;;;;;;;3.50;3.50;;;;;8.25;85.16;97357.63;5000092;28;8862;-52
2021/12/01 15:45:46;;;;;;;;;4.00;3.00;;;;;8.24;85.48;97356.81;4999716;28;8859;-52
2021/12/01 15:48:13;;;;;;;;;0.25;0.25;;;;;8.26;85.11;97353.97;5002269;28;8874;-54
2021/12/01 15:50:42;;;;;;;;;3.00;3.00;;;;;8.28;85.24;97352.00;5005138;28;8862;-54
2021/12/01 15:53:11;;;;;;;;;1.00;1.00;;;;;8.28;85.15;97352.81;5004431;28;8872;-53
2021/12/01 15:55:40;;;;;;;;;2.50;2.50;;;;;8.28;85.37;97352.00;5002130;28;9374;-53
2021/12/01 15:58:07;;;;;;;;;3.00;3.00;;;;;8.24;85.12;97351.50;5004699;28;8880;-53
2021/12/01 16:00:35;;;;;;;;;2.00;2.00;;;;;8.21;85.20;97343.88;5003287;28;8909;-54
2021/12/01 16:03:03;;;;;;;;;1.00;1.00;;;;;8.23;85.11;97355.16;5001958;28;8888;-55
2021/12/01 16:05:31;;;;;;;;;2.00;2.00;;;;;8.25;85.57;97355.81;5003411;28;8882;-54
2021/12/01 16:08:02;;;;;;;;;3.00;3.00;;;;;8.24;84.98;97345.38;5002890;28;8862;-53
2021/12/01 16:10:30;;;;;;;;;3.00;2.00;;;;;8.24;85.15;97348.03;5004658;28;9116;-54
2021/12/01 16:13:01;;;;;;;;;2.50;2.50;;;;;8.24;84.96;97356.81;5003378;28;8882;-54
2021/12/01 16:15:30;;;;;;;;;0.25;0.00;;;;;8.25;84.43;97358.47;5002591;28;8867;-54
2021/12/01 16:18:00;;;;;;;;;0.25;0.25;;;;;8.26;84.45;97368.06;5013533;28;8868;-54
2021/12/01 16:20:28;;;;;;;;;2.00;1.00;;;;;8.28;84.50;97367.91;5004333;28;8886;-54
2021/12/01 16:22:55;;;;;;;;;3.00;2.00;;;;;8.26;84.73;97349.50;5006517;28;8896;-53
2021/12/01 16:25:28;;;;;;;;;3.00;1.00;;;;;8.24;84.45;97354.16;5006051;28;8883;-54
2021/12/01 16:27:55;;;;;;;;;3.25;3.25;;;;;8.25;84.62;97363.78;5007215;28;8910;-54
2021/12/01 16:30:23;;;;;;;;;2.50;2.50;;;;;8.23;84.29;97373.72;5002911;28;8866;-54
2021/12/01 16:32:50;;;;;;;;;2.00;1.50;;;;;8.23;84.36;97354.31;5003498;28;8854;-54
2021/12/01 16:35:18;;;;;;;;;3.50;3.50;;;;;8.21;84.44;97367.75;5001107;28;8870;-54
2021/12/01 16:37:46;;;;;;;;;3.50;1.00;;;;;8.21;84.33;97361.63;5002908;28;9001;-55
2021/12/01 16:40:14;;;;;;;;;3.00;3.00;;;;;8.23;83.94;97379.03;4999473;28;8858;-54
2021/12/01 16:42:42;;;;;;;;;3.00;3.00;;;;;8.25;84.16;97378.81;5002802;28;8866;-54
2021/12/01 16:45:10;;;;;;;;;3.00;3.00;;;;;8.26;84.19;97380.47;5003510;28;8854;-54
2021/12/01 16:47:37;;;;;;;;;1.00;1.00;;;;;8.27;83.84;97385.63;5003857;28;10099;-54
2021/12/01 16:50:05;;;;;;;;;1.00;1.00;;;;;8.23;84.47;97392.28;5003283;28;9841;-54
2021/12/01 16:52:33;;;;;;;;;4.50;2.50;;;;;8.12;83.94;97392.59;5006656;28;8928;-54
2021/12/01 16:55:00;;;;;;;;;3.75;3.75;;;;;8.02;84.73;97399.91;5004216;28;8854;-54
2021/12/01 16:57:28;;;;;;;;;3.50;3.00;;;;;7.99;84.96;97400.22;5006232;28;8865;-55
2021/12/01 16:59:56;;;;;;;;;2.00;2.00;;;;;7.96;84.64;97391.78;5002996;28;8854;-54
2021/12/01 17:02:24;;;;;;;;;3.00;3.00;;;;;7.91;84.96;97392.28;5001979;28;8862;-55
2021/12/01 17:05:02;;;;;;;;;1.00;1.00;;;;;7.88;85.18;97402.41;5005711;28;8854;-54
2021/12/01 17:07:39;;;;;;;;;3.25;3.25;;;;;7.85;85.01;97400.91;5004110;28;9508;-53
2021/12/01 17:10:07;;;;;;;;;3.00;1.00;;;;;7.88;85.44;97405.03;5002607;28;8858;-55
2021/12/01 17:12:35;;;;;;;;;1.00;1.00;;;;;7.90;84.71;97409.19;5004525;28;8882;-55
2021/12/01 17:15:03;;;;;;;;;3.25;3.25;;;;;7.89;84.83;97412.84;5004769;28;8900;-54
2021/12/01 17:17:32;;;;;;;;;1.00;1.00;;;;;7.85;84.98;97434.53;5003234;28;8881;-54
2021/12/01 17:20:02;;;;;;;;;3.00;3.00;;;;;7.83;85.03;97453.22;5018199;28;8877;-54
2021/12/01 17:22:30;;;;;;;;;0.75;0.75;;;;;7.68;84.84;97478.72;5022232;28;8879;-55
2021/12/01 17:24:58;;;;;;;;;0.00;0.00;;;;;7.33;84.52;97512.59;5025185;28;9176;-56
2021/12/01 17:27:27;;;;;;;;;0.00;0.00;;;;;7.00;85.27;97492.31;5024052;28;8876;-56
2021/12/01 17:29:57;;;;;;;;;0.00;0.00;;;;;6.72;85.94;97492.69;5025687;28;8856;-55
2021/12/01 17:32:25;;;;;;;;;1.00;0.00;;;;;6.55;86.39;97498.88;5022177;28;8866;-55
2021/12/01 17:34:55;;;;;;;;;1.50;0.25;;;;;6.44;86.99;97504.44;5024813;28;8840;-55
2021/12/01 17:37:23;;;;;;;;;0.00;0.00;;;;;6.39;87.36;97510.22;5026101;28;8874;-55
2021/12/01 17:39:51;;;;;;;;;0.00;0.00;;;;;6.35;87.23;97518.56;5025597;28;8979;-54
2021/12/01 17:42:23;;;;;;;;;0.50;0.00;;;;;6.36;87.60;97513.16;5024368;28;8902;-55
2021/12/01 17:44:51;;;;;;;;;0.40;0.00;;;;;6.38;87.45;97519.09;5024143;28;9719;-54
2021/12/01 17:47:34;;;;;;;;;1.00;0.00;;;;;6.40;87.46;97521.59;5025229;28;8868;-55
2021/12/01 17:50:02;;;;;;;;;1.00;0.00;;;;;6.42;87.65;97520.44;5007939;28;8857;-55
2021/12/01 17:52:29;;;;;;;;;0.40;0.40;;;;;6.47;87.22;97533.19;5025072;28;8855;-55
2021/12/01 17:54:58;;;;;;;;;1.80;1.00;;;;;6.52;87.87;97542.31;5024483;28;8857;-54
2021/12/01 17:57:25;;;;;;;;;0.80;0.80;;;;;6.56;87.30;97546.31;5024980;28;8890;-54
2021/12/01 17:59:53;;;;;;;;;0.80;0.80;;;;;6.60;87.34;97549.47;5023531;28;8864;-54
2021/12/01 18:02:21;;;;;;;;;0.00;0.00;;;;;6.64;86.97;97558.75;5025172;28;8950;-53
2021/12/01 18:04:49;;;;;;;;;1.00;1.00;;;;;6.67;86.89;97571.66;5023345;28;8856;-54
2021/12/01 18:07:17;;;;;;;;;0.50;0.50;;;;;6.69;87.06;97572.34;5024009;28;8868;-53
2021/12/01 18:09:47;;;;;;;;;2.60;1.00;;;;;6.68;87.22;97576.78;5022526;28;8864;-53
2021/12/01 18:12:15;;;;;;;;;0.80;0.80;;;;;6.70;87.04;97574.84;5026646;28;8852;-53
2021/12/01 18:14:43;;;;;;;;;2.80;1.40;;;;;6.68;86.97;97584.72;5026336;28;8859;-55
2021/12/01 18:17:11;;;;;;;;;1.40;0.60;;;;;6.70;86.98;97595.97;5025996;28;8845;-53
2021/12/01 18:19:38;;;;;;;;;1.00;1.00;;;;;6.73;86.88;97592.19;5007946;28;8875;-54
2021/12/01 18:22:06;;;;;;;;;2.60;0.40;;;;;6.76;86.63;97592.69;5006387;28;8850;-54
2021/12/01 18:24:34;;;;;;;;;1.80;1.80;;;;;6.79;86.65;97607.44;5007788;28;8985;-54
2021/12/01 18:27:02;;;;;;;;;1.00;1.00;;;;;6.82;86.43;97607.13;5008060;28;8842;-54
2021/12/01 18:29:29;;;;;;;;;2.20;1.00;;;;;6.84;86.54;97615.72;5007540;28;8854;-55
2021/12/01 18:31:57;;;;;;;;;1.00;1.00;;;;;6.85;86.29;97612.94;5007407;28;8874;-54
2021/12/01 18:34:26;;;;;;;;;0.20;0.20;;;;;6.86;86.23;97625.19;5007810;28;8974;-55
2021/12/01 18:36:55;;;;;;;;;0.00;0.00;;;;;6.85;85.81;97625.31;5006087;28;8872;-54
2021/12/01 18:39:25;;;;;;;;;2.20;2.20;;;;;6.84;86.82;97624.47;5005665;28;8897;-54
2021/12/01 18:41:53;;;;;;;;;3.20;2.20;;;;;6.83;86.37;97636.03;5007565;28;8904;-53
2021/12/01 18:44:22;;;;;;;;;1.00;1.00;;;;;6.81;85.94;97639.84;5007645;28;8872;-54
2021/12/01 18:46:50;;;;;;;;;0.00;0.00;;;;;6.77;86.26;97649.91;5004046;28;8862;-54
2021/12/01 18:49:18;;;;;;;;;4.80;3.20;;;;;6.78;85.97;97656.00;5005634;28;8944;-54
2021/12/01 18:51:45;;;;;;;;;4.00;3.25;;;;;6.77;86.13;97664.94;5005819;28;8866;-54
2021/12/01 18:54:13;;;;;;;;;0.00;0.00;;;;;6.76;86.20;97671.22;5007629;28;8869;-54
2021/12/01 18:56:41;;;;;;;;;1.00;1.00;;;;;6.74;86.48;97668.72;5005440;28;8955;-54
2021/12/01 18:59:09;;;;;;;;;1.00;1.00;;;;;6.71;86.45;97668.19;5007158;28;9523;-54
2021/12/01 19:01:36;;;;;;;;;1.00;0.00;;;;;6.70;86.44;97669.19;5006701;28;9287;-55
2021/12/01 19:04:04;;;;;;;;;3.00;1.00;;;;;6.70;85.88;97677.13;5006594;28;8890;-54
2021/12/01 19:06:34;;;;;;;;;3.20;3.20;;;;;6.71;86.16;97678.78;5004079;28;9017;-55
2021/12/01 19:09:02;;;;;;;;;5.00;4.00;;;;;6.72;85.89;97688.38;5006698;28;8850;-54
2021/12/01 19:11:30;;;;;;;;;1.00;1.00;;;;;6.72;85.86;97696.28;5007029;28;8872;-54
2021/12/01 19:13:57;;;;;;;;;1.00;1.00;;;;;6.70;86.15;97701.75;5007627;28;8893;-54
2021/12/01 19:16:25;;;;;;;;;2.00;1.50;;;;;6.69;86.39;97699.25;5007758;28;8992;-54
2021/12/01 19:18:53;;;;;;;;;4.00;3.40;;;;;6.66;86.04;97695.09;5006437;28;8875;-55
2021/12/01 19:21:20;;;;;;;;;1.00;1.00;;;;;6.64;86.00;97701.53;5007008;28;8965;-56
2021/12/01 19:23:52;;;;;;;;;0.75;0.75;;;;;6.63;85.99;97710.44;5007638;28;8850;-55
2021/12/01 19:26:20;;;;;;;;;0.50;0.50;;;;;6.67;85.90;97703.88;5008559;28;8858;-54
2021/12/01 19:28:48;;;;;;;;;1.00;1.00;;;;;6.69;85.90;97715.13;5008590;28;8858;-55
2021/12/01 19:31:16;;;;;;;;;1.00;1.00;;;;;6.71;85.94;97726.38;5005886;28;9088;-54
2021/12/01 19:33:43;;;;;;;;;0.00;0.00;;;;;6.70;85.75;97724.72;5008516;28;8851;-54
2021/12/01 19:36:11;;;;;;;;;3.00;3.00;;;;;6.66;85.69;97731.31;5006599;28;8984;-54
2021/12/01 19:38:39;;;;;;;;;1.00;1.00;;;;;6.63;85.49;97734.22;5006969;28;8868;-55
2021/12/01 19:41:07;;;;;;;;;0.00;0.00;;;;;6.58;85.89;97747.06;5006470;28;9524;-54
2021/12/01 19:43:34;;;;;;;;;1.40;1.40;;;;;6.52;85.60;97742.41;5007448;28;8880;-54
2021/12/01 19:46:02;;;;;;;;;1.50;1.00;;;;;6.48;85.80;97748.97;5007515;28;8873;-54
2021/12/01 19:48:30;;;;;;;;;0.75;0.75;;;;;6.45;86.39;97757.22;5005843;28;9493;-54
2021/12/01 19:51:03;;;;;;;;;1.00;1.00;;;;;6.44;86.05;97758.19;5007868;28;8924;-54
2021/12/01 19:53:30;;;;;;;;;0.60;0.60;;;;;6.41;85.98;97751.38;5007588;28;8843;-54
2021/12/01 19:55:58;;;;;;;;;0.00;0.00;;;;;6.37;85.96;97757.94;5008335;28;8854;-55
2021/12/01 19:58:26;;;;;;;;;0.75;0.75;;;;;6.33;86.43;97766.31;5008914;28;8862;-54
2021/12/01 20:00:54;;;;;;;;;0.00;0.00;;;;;6.30;86.09;97771.91;5007518;28;8830;-54
2021/12/01 20:03:23;;;;;;;;;0.40;0.20;;;;;6.27;86.05;97782.75;5008151;28;8862;-54
2021/12/01 20:05:52;;;;;;;;;1.00;1.00;;;;;6.26;86.09;97783.75;5007765;28;8877;-54
2021/12/01 20:08:19;;;;;;;;;3.20;2.20;;;;;6.25;86.48;97788.22;5006982;28;8838;-55
2021/12/01 20:10:47;;;;;;;;;2.60;2.60;;;;;6.29;86.61;97788.75;5006871;28;8858;-54
2021/12/01 20:13:15;;;;;;;;;1.80;1.80;;;;;6.32;85.97;97791.94;5007097;28;8858;-53
2021/12/01 20:15:43;;;;;;;;;0.80;0.80;;;;;6.34;85.92;97784.69;5007577;28;8858;-53
2021/12/01 20:18:12;;;;;;;;;0.40;0.40;;;;;6.39;85.83;97789.50;5006652;28;8846;-54
2021/12/01 20:20:41;;;;;;;;;0.00;0.00;;;;;6.41;85.91;97792.84;5026332;28;9538;-54
2021/12/01 20:23:11;;;;;;;;;1.00;1.00;;;;;6.43;85.66;97799.63;5027494;28;8861;-54
2021/12/01 20:25:39;;;;;;;;;0.20;0.00;;;;;6.46;85.24;97801.16;5027079;28;8874;-54
2021/12/01 20:28:07;;;;;;;;;2.20;1.00;;;;;6.48;85.86;97815.03;5027975;28;8864;-54
2021/12/01 20:30:35;;;;;;;;;1.00;0.60;;;;;6.48;85.69;97794.75;5027010;28;8856;-54
2021/12/01 20:33:03;;;;;;;;;3.00;3.00;;;;;6.50;84.94;97797.22;5026987;28;8848;-54
2021/12/01 20:35:31;;;;;;;;;1.00;1.00;;;;;6.52;85.38;97805.84;5030137;28;9494;-54
2021/12/01 20:37:58;;;;;;;;;1.00;1.00;;;;;6.52;85.36;97811.97;5029967;28;8848;-54
2021/12/01 20:40:26;;;;;;;;;1.40;1.40;;;;;6.52;85.40;97806.66;5028884;28;8848;-55
2021/12/01 20:42:54;;;;;;;;;3.00;2.20;;;;;6.51;85.31;97815.59;5025345;28;8877;-55
2021/12/01 20:45:23;;;;;;;;;3.60;3.00;;;;;6.51;84.94;97812.13;5011207;28;8877;-54
2021/12/01 20:48:13;;;;;;;;;3.00;3.00;;;;;6.49;85.35;97825.47;5009002;28;8865;-54
2021/12/01 20:53:33;;;;;;;;;1.00;1.00;;;;;6.44;85.55;97834.84;5010917;28;8866;-54
2021/12/01 20:56:24;;;;;;;;;1.40;1.40;;;;;6.44;85.48;97821.63;5010633;28;8846;-55
2021/12/01 20:58:54;;;;;;;;;2.60;2.60;;;;;6.43;85.39;97846.38;5019858;28;8871;-55
2021/12/01 21:01:25;;;;;;;;;3.00;3.00;;;;;6.43;85.49;97843.72;5028299;28;8858;-55
2021/12/01 21:03:55;;;;;;;;;1.00;1.00;;;;;6.42;85.33;97852.66;5027822;28;8833;-55
2021/12/01 21:06:23;;;;;;;;;1.00;1.00;;;;;6.40;85.43;97846.69;5028772;28;8852;-54
2021/12/01 21:08:54;;;;;;;;;2.60;2.60;;;;;6.37;85.47;97855.72;5010769;28;9032;-55
2021/12/01 21:11:24;;;;;;;;;0.20;0.20;;;;;6.33;85.49;97858.81;5010469;28;8875;-55
2021/12/01 21:13:52;;;;;;;;;3.00;3.00;;;;;6.26;85.17;97863.03;5009918;28;8922;-54
2021/12/01 21:16:20;;;;;;;;;0.00;0.00;;;;;6.19;85.88;97867.22;5025552;28;8844;-54
2021/12/01 21:18:48;;;;;;;;;0.00;0.00;;;;;6.12;85.84;97867.00;5010795;28;9136;-54
2021/12/01 21:21:16;;;;;;;;;0.60;0.60;;;;;6.03;86.23;97873.16;5008587;28;8858;-54
2021/12/01 21:23:44;;;;;;;;;0.00;0.00;;;;;5.96;85.99;97872.06;5009431;28;8854;-55
2021/12/01 21:26:13;;;;;;;;;0.00;0.00;;;;;5.90;86.21;97875.28;5009002;28;8859;-54
2021/12/01 21:28:42;;;;;;;;;0.20;0.20;;;;;5.86;86.51;97876.50;5009110;28;8924;-54
2021/12/01 21:31:11;;;;;;;;;0.00;0.00;;;;;5.82;86.40;97882.22;5006345;28;8873;-54
2021/12/01 21:33:39;;;;;;;;;2.60;2.60;;;;;5.77;86.36;97887.09;5009566;28;8854;-54
2021/12/01 21:36:07;;;;;;;;;0.00;0.00;;;;;5.73;86.32;97893.63;5008604;28;8858;-53
2021/12/01 21:38:35;;;;;;;;;1.00;0.60;;;;;5.68;86.37;97895.88;5010484;28;8850;-54
2021/12/01 21:41:04;;;;;;;;;0.60;0.60;;;;;5.63;86.65;97898.91;5007973;28;8872;-54
2021/12/01 21:43:31;;;;;;;;;0.00;0.00;;;;;5.56;86.69;97899.63;5008127;28;8848;-54
2021/12/01 21:45:59;;;;;;;;;1.00;1.00;;;;;5.52;86.81;97899.09;5008105;28;8842;-54
2021/12/01 21:48:27;;;;;;;;;0.00;0.00;;;;;5.49;86.74;97909.09;5008153;28;8882;-54
2021/12/01 21:50:55;;;;;;;;;0.00;0.00;;;;;5.48;86.90;97907.44;5009993;28;8850;-54
2021/12/01 21:53:22;;;;;;;;;1.20;0.40;;;;;5.49;86.56;97914.38;5010213;28;8854;-54
2021/12/01 21:55:51;;;;;;;;;0.00;0.00;;;;;5.47;86.68;97908.41;5007949;28;8862;-55
2021/12/01 21:58:19;;;;;;;;;0.00;0.00;;;;;5.47;86.68;97917.13;5008435;28;9485;-54
2021/12/01 22:00:47;;;;;;;;;0.00;0.00;;;;;5.44;86.89;97921.88;5007944;28;8861;-54
2021/12/01 22:03:15;;;;;;;;;1.00;1.00;;;;;5.41;86.72;97922.97;5009545;28;8854;-54
2021/12/01 22:05:44;;;;;;;;;0.00;0.00;;;;;5.37;86.49;97926.88;5008156;28;8846;-55
2021/12/01 22:08:13;;;;;;;;;0.00;0.00;;;;;5.36;86.85;97930.50;5007396;28;9533;-55
2021/12/01 22:10:41;;;;;;;;;0.00;0.00;;;;;5.35;86.74;97930.63;5006706;28;8846;-55
2021/12/01 22:13:09;;;;;;;;;0.00;0.00;;;;;5.37;86.64;97931.31;5005608;28;8850;-54
2021/12/01 22:15:37;;;;;;;;;0.00;0.00;;;;;5.37;86.59;97932.16;5008660;28;8854;-54
2021/12/01 22:18:07;;;;;;;;;0.00;0.00;;;;;5.39;86.59;97935.47;5008108;28;8874;-54
2021/12/01 22:20:34;;;;;;;;;0.20;0.20;;;;;5.42;86.80;97944.94;5009108;28;8940;-54
2021/12/01 22:23:05;;;;;;;;;0.00;0.00;;;;;5.45;86.49;97940.22;5007201;28;8851;-54
2021/12/01 22:25:33;;;;;;;;;0.20;0.20;;;;;5.49;86.31;97941.59;5007836;28;8872;-55
2021/12/01 22:28:00;;;;;;;;;0.00;0.00;;;;;5.56;86.17;97947.16;5008331;28;8854;-54
2021/12/01 22:30:28;;;;;;;;;0.00;0.00;;;;;5.62;86.40;97943.97;5007369;28;8866;-54
2021/12/01 22:32:57;;;;;;;;;0.80;0.40;;;;;5.67;86.34;97946.97;5007644;28;8994;-54
2021/12/01 22:35:25;;;;;;;;;1.40;1.00;;;;;5.72;85.68;97950.03;5009522;28;8858;-54
2021/12/01 22:37:53;;;;;;;;;0.00;0.00;;;;;5.76;85.83;97946.97;5009427;28;8862;-54
2021/12/01 22:40:20;;;;;;;;;0.00;0.00;;;;;5.79;86.09;97949.38;5008058;28;8876;-54
2021/12/01 22:42:48;;;;;;;;;0.60;0.60;;;;;5.82;86.11;97950.88;5009460;28;8866;-55
2021/12/01 22:45:16;;;;;;;;;0.00;0.00;;;;;5.84;85.81;97951.59;5009982;28;8862;-54
2021/12/01 22:47:44;;;;;;;;;0.00;0.00;;;;;5.85;85.89;97948.78;5010277;28;8877;-55
2021/12/01 22:50:12;;;;;;;;;0.00;0.00;;;;;5.88;85.91;97950.31;5010146;28;8854;-54
2021/12/01 22:52:39;;;;;;;;;0.00;0.00;;;;;5.88;85.57;97950.31;5010598;28;8862;-54
2021/12/01 22:55:07;;;;;;;;;0.00;0.00;;;;;5.85;85.56;97948.78;5008233;28;8846;-55
2021/12/01 22:57:35;;;;;;;;;0.00;0.00;;;;;5.81;85.44;97951.88;5009254;28;8847;-55
2021/12/01 23:00:11;;;;;;;;;0.00;0.00;;;;;5.78;85.62;97957.41;5009186;28;8858;-54
2021/12/01 23:02:39;;;;;;;;;0.00;0.00;;;;;5.77;85.69;97945.19;5009098;28;9534;-54
2021/12/01 23:05:07;;;;;;;;;0.00;0.00;;;;;5.78;85.74;97946.84;5007690;28;8877;-55
2021/12/01 23:07:35;;;;;;;;;0.00;0.00;;;;;5.79;85.72;97953.78;5006014;28;9521;-54
2021/12/01 23:10:03;;;;;;;;;0.00;0.00;;;;;5.80;85.43;97961.63;5007127;28;8858;-55
2021/12/01 23:12:31;;;;;;;;;1.00;0.80;;;;;5.83;85.47;97965.75;5005194;28;8865;-54
2021/12/01 23:14:59;;;;;;;;;1.60;0.60;;;;;5.83;85.20;97966.59;5008021;28;8854;-54
2021/12/01 23:17:26;;;;;;;;;1.00;1.00;;;;;5.84;85.52;97975.38;5006941;28;8850;-55
2021/12/01 23:19:54;;;;;;;;;0.00;0.00;;;;;5.84;85.38;97972.72;5008472;28;8993;-55
2021/12/01 23:22:23;;;;;;;;;0.00;0.00;;;;;5.84;85.33;97978.81;5005571;28;8839;-54
2021/12/01 23:27:36;;;;;;;;;0.00;0.00;;;;;5.85;85.28;97975.19;5009415;28;8846;-55
2021/12/01 23:30:04;;;;;;;;;0.00;0.00;;;;;5.85;85.02;97979.66;5008807;28;8874;-54
2021/12/01 23:32:32;;;;;;;;;0.00;0.00;;;;;5.85;85.32;97979.66;5008698;28;8858;-54
2021/12/01 23:34:59;;;;;;;;;0.40;0.40;;;;;5.83;84.87;97979.81;5009763;28;8866;-54
2021/12/01 23:37:30;;;;;;;;;0.00;0.00;;;;;5.82;85.28;97985.22;5010045;28;8851;-55
2021/12/01 23:39:57;;;;;;;;;0.00;0.00;;;;;5.81;85.48;97983.56;5008244;28;8846;-54
2021/12/01 23:42:25;;;;;;;;;0.40;0.40;;;;;5.81;85.14;97984.41;5008734;28;8865;-54
2021/12/01 23:44:59;;;;;;;;;0.00;0.00;;;;;5.81;85.30;97991.47;5008318;28;8862;-54
2021/12/01 23:47:38;;;;;;;;;0.40;0.40;;;;;5.81;85.26;97983.56;5007974;28;8851;-55
2021/12/01 23:53:06;;;;;;;;;1.00;0.00;;;;;5.76;85.13;97980.50;4968960;28;8892;-54
2021/12/01 23:55:34;;;;;;;;;0.00;0.00;;;;;5.73;85.43;97986.88;4968867;28;8851;-55
2021/12/01 23:58:02;;;;;;;;;3.20;3.20;;;;;5.68;85.35;97980.34;4986579;28;8893;-54
